sensor_id;sensor_type;location;lat;lon;timestamp;pressure;altitude;pressure_sealevel;temperature;humidity
69528;BME280;57136;51.986;4.468;2022-11-20T00:01:45;101514.50;;;-1.45;94.05
69528;BME280;57136;51.986;4.468;2022-11-20T00:04:10;101521.56;;;-1.41;92.90
69528;BME280;57136;51.986;4.468;2022-11-20T00:06:37;101533.44;;;-1.41;91.91
69528;BME280;57136;51.986;4.468;2022-11-20T00:09:02;101534.41;;;-1.53;92.24
69528;BME280;57136;51.986;4.468;2022-11-20T00:11:29;101529.09;;;-1.69;92.53
69528;BME280;57136;51.986;4.468;2022-11-20T00:13:57;101521.44;;;-1.83;93.78
69528;BME280;57136;51.986;4.468;2022-11-20T00:16:24;101510.69;;;-1.90;95.24
69528;BME280;57136;51.986;4.468;2022-11-20T00:18:50;101512.25;;;-1.92;95.11
69528;BME280;57136;51.986;4.468;2022-11-20T00:21:19;101504.72;;;-1.91;92.99
69528;BME280;57136;51.986;4.468;2022-11-20T00:23:45;101510.41;;;-1.95;93.11
69528;BME280;57136;51.986;4.468;2022-11-20T00:26:13;101511.09;;;-1.98;92.99
69528;BME280;57136;51.986;4.468;2022-11-20T00:28:39;101510.69;;;-2.04;92.98
69528;BME280;57136;51.986;4.468;2022-11-20T00:31:13;101515.78;;;-1.90;92.42
69528;BME280;57136;51.986;4.468;2022-11-20T00:33:40;101508.34;;;-2.01;93.24
69528;BME280;57136;51.986;4.468;2022-11-20T00:36:07;101503.50;;;-2.09;96.14
69528;BME280;57136;51.986;4.468;2022-11-20T00:38:33;101499.53;;;-2.18;99.41
69528;BME280;57136;51.986;4.468;2022-11-20T00:41:03;101498.84;;;-2.15;99.30
69528;BME280;57136;51.986;4.468;2022-11-20T00:43:29;101486.88;;;-2.16;100.00
69528;BME280;57136;51.986;4.468;2022-11-20T00:46:04;101493.66;;;-2.17;100.00
69528;BME280;57136;51.986;4.468;2022-11-20T00:48:30;101494.25;;;-2.07;100.00
69528;BME280;57136;51.986;4.468;2022-11-20T00:50:55;101500.25;;;-2.07;98.13
69528;BME280;57136;51.986;4.468;2022-11-20T00:53:21;101498.75;;;-2.17;97.73
69528;BME280;57136;51.986;4.468;2022-11-20T00:56:02;101493.53;;;-2.18;96.95
69528;BME280;57136;51.986;4.468;2022-11-20T00:58:33;101495.22;;;-2.19;95.73
69528;BME280;57136;51.986;4.468;2022-11-20T01:01:04;101498.13;;;-2.26;96.48
69528;BME280;57136;51.986;4.468;2022-11-20T01:03:34;101503.03;;;-2.29;95.63
69528;BME280;57136;51.986;4.468;2022-11-20T01:06:06;101505.44;;;-2.19;95.60
69528;BME280;57136;51.986;4.468;2022-11-20T01:08:33;101510.97;;;-2.13;95.81
69528;BME280;57136;51.986;4.468;2022-11-20T01:11:05;101510.25;;;-2.10;95.90
69528;BME280;57136;51.986;4.468;2022-11-20T01:13:31;101512.09;;;-2.21;96.67
69528;BME280;57136;51.986;4.468;2022-11-20T01:16:09;101490.63;;;-2.36;100.00
69528;BME280;57136;51.986;4.468;2022-11-20T01:18:37;101485.53;;;-2.36;100.00
69528;BME280;57136;51.986;4.468;2022-11-20T01:21:05;101481.94;;;-2.27;100.00
69528;BME280;57136;51.986;4.468;2022-11-20T01:23:35;101482.09;;;-2.12;100.00
69528;BME280;57136;51.986;4.468;2022-11-20T01:26:04;101489.66;;;-2.00;98.35
69528;BME280;57136;51.986;4.468;2022-11-20T01:28:29;101491.03;;;-1.91;98.15
69528;BME280;57136;51.986;4.468;2022-11-20T01:30:55;101499.91;;;-1.86;97.94
69528;BME280;57136;51.986;4.468;2022-11-20T01:33:21;101494.38;;;-2.06;98.64
69528;BME280;57136;51.986;4.468;2022-11-20T01:35:46;101492.66;;;-2.19;98.67
69528;BME280;57136;51.986;4.468;2022-11-20T01:38:12;101496.63;;;-2.11;97.30
69528;BME280;57136;51.986;4.468;2022-11-20T01:40:37;101488.03;;;-2.24;97.29
69528;BME280;57136;51.986;4.468;2022-11-20T01:43:32;101492.47;;;-2.47;97.96
69528;BME280;57136;51.986;4.468;2022-11-20T01:46:24;101492.84;;;-2.54;97.25
69528;BME280;57136;51.986;4.468;2022-11-20T01:52:07;101487.38;;;-2.73;100.00
69528;BME280;57136;51.986;4.468;2022-11-20T01:54:38;101490.22;;;-2.68;100.00
69528;BME280;57136;51.986;4.468;2022-11-20T01:57:07;101490.00;;;-2.71;99.05
69528;BME280;57136;51.986;4.468;2022-11-20T01:59:37;101489.69;;;-2.76;98.64
69528;BME280;57136;51.986;4.468;2022-11-20T02:02:05;101493.91;;;-2.76;97.28
69528;BME280;57136;51.986;4.468;2022-11-20T02:04:31;101490.25;;;-2.80;97.63
69528;BME280;57136;51.986;4.468;2022-11-20T02:07:00;101480.84;;;-2.81;100.00
69528;BME280;57136;51.986;4.468;2022-11-20T02:09:27;101480.28;;;-2.77;100.00
69528;BME280;57136;51.986;4.468;2022-11-20T02:11:53;101489.91;;;-2.73;100.00
69528;BME280;57136;51.986;4.468;2022-11-20T02:14:21;101487.47;;;-2.71;100.00
69528;BME280;57136;51.986;4.468;2022-11-20T02:16:48;101490.91;;;-2.71;100.00
69528;BME280;57136;51.986;4.468;2022-11-20T02:19:28;101478.81;;;-2.73;100.00
69528;BME280;57136;51.986;4.468;2022-11-20T02:22:08;101486.38;;;-2.75;100.00
69528;BME280;57136;51.986;4.468;2022-11-20T02:24:36;101473.50;;;-2.76;100.00
69528;BME280;57136;51.986;4.468;2022-11-20T02:27:08;101472.72;;;-2.75;100.00
69528;BME280;57136;51.986;4.468;2022-11-20T02:29:41;101468.50;;;-2.75;100.00
69528;BME280;57136;51.986;4.468;2022-11-20T02:32:26;101467.31;;;-2.80;100.00
69528;BME280;57136;51.986;4.468;2022-11-20T02:34:54;101468.22;;;-2.79;100.00
69528;BME280;57136;51.986;4.468;2022-11-20T02:37:22;101465.31;;;-2.84;100.00
69528;BME280;57136;51.986;4.468;2022-11-20T02:39:50;101463.53;;;-2.85;100.00
69528;BME280;57136;51.986;4.468;2022-11-20T02:42:16;101460.56;;;-2.79;100.00
69528;BME280;57136;51.986;4.468;2022-11-20T02:44:42;101452.00;;;-2.80;100.00
69528;BME280;57136;51.986;4.468;2022-11-20T02:47:07;101453.78;;;-2.79;100.00
69528;BME280;57136;51.986;4.468;2022-11-20T02:49:33;101455.97;;;-2.72;100.00
69528;BME280;57136;51.986;4.468;2022-11-20T02:51:59;101453.28;;;-2.73;100.00
69528;BME280;57136;51.986;4.468;2022-11-20T02:54:24;101454.28;;;-2.71;100.00
69528;BME280;57136;51.986;4.468;2022-11-20T02:56:50;101463.09;;;-2.54;100.00
69528;BME280;57136;51.986;4.468;2022-11-20T02:59:15;101447.78;;;-2.54;100.00
69528;BME280;57136;51.986;4.468;2022-11-20T03:01:40;101447.34;;;-2.60;100.00
69528;BME280;57136;51.986;4.468;2022-11-20T03:04:06;101449.69;;;-2.63;100.00
69528;BME280;57136;51.986;4.468;2022-11-20T03:06:31;101435.66;;;-2.70;100.00
69528;BME280;57136;51.986;4.468;2022-11-20T03:08:57;101427.44;;;-2.66;100.00
69528;BME280;57136;51.986;4.468;2022-11-20T03:11:22;101425.28;;;-2.60;100.00
69528;BME280;57136;51.986;4.468;2022-11-20T03:13:48;101421.63;;;-2.63;100.00
69528;BME280;57136;51.986;4.468;2022-11-20T03:16:19;101420.50;;;-2.55;100.00
69528;BME280;57136;51.986;4.468;2022-11-20T03:18:44;101422.06;;;-2.57;100.00
69528;BME280;57136;51.986;4.468;2022-11-20T03:21:11;101422.41;;;-2.64;100.00
69528;BME280;57136;51.986;4.468;2022-11-20T03:23:38;101415.34;;;-2.68;100.00
69528;BME280;57136;51.986;4.468;2022-11-20T03:26:24;101406.03;;;-2.68;100.00
69528;BME280;57136;51.986;4.468;2022-11-20T03:28:54;101409.66;;;-2.64;100.00
69528;BME280;57136;51.986;4.468;2022-11-20T03:31:23;101416.44;;;-2.65;100.00
69528;BME280;57136;51.986;4.468;2022-11-20T03:33:49;101413.38;;;-2.73;100.00
69528;BME280;57136;51.986;4.468;2022-11-20T03:36:16;101410.41;;;-2.79;100.00
69528;BME280;57136;51.986;4.468;2022-11-20T03:38:42;101411.09;;;-2.81;100.00
69528;BME280;57136;51.986;4.468;2022-11-20T03:41:13;101416.66;;;-2.62;98.33
69528;BME280;57136;51.986;4.468;2022-11-20T03:43:39;101414.19;;;-2.60;98.19
69528;BME280;57136;51.986;4.468;2022-11-20T03:46:05;101410.25;;;-2.68;100.00
69528;BME280;57136;51.986;4.468;2022-11-20T03:48:31;101406.72;;;-2.71;100.00
69528;BME280;57136;51.986;4.468;2022-11-20T03:51:22;101410.91;;;-2.71;99.87
69528;BME280;57136;51.986;4.468;2022-11-20T03:53:49;101389.91;;;-2.80;99.62
69528;BME280;57136;51.986;4.468;2022-11-20T03:56:17;101397.22;;;-2.85;100.00
69528;BME280;57136;51.986;4.468;2022-11-20T03:58:42;101382.50;;;-2.89;100.00
69528;BME280;57136;51.986;4.468;2022-11-20T04:01:11;101374.84;;;-2.89;100.00
69528;BME280;57136;51.986;4.468;2022-11-20T04:03:37;101369.75;;;-2.89;100.00
69528;BME280;57136;51.986;4.468;2022-11-20T04:06:06;101368.72;;;-2.79;100.00
69528;BME280;57136;51.986;4.468;2022-11-20T04:08:32;101369.03;;;-2.75;100.00
69528;BME280;57136;51.986;4.468;2022-11-20T04:11:14;101367.03;;;-2.79;100.00
69528;BME280;57136;51.986;4.468;2022-11-20T04:13:41;101361.38;;;-2.75;100.00
69528;BME280;57136;51.986;4.468;2022-11-20T04:16:07;101349.97;;;-2.80;100.00
69528;BME280;57136;51.986;4.468;2022-11-20T04:18:33;101350.38;;;-2.74;100.00
69528;BME280;57136;51.986;4.468;2022-11-20T04:20:59;101353.81;;;-2.73;100.00
69528;BME280;57136;51.986;4.468;2022-11-20T04:23:25;101340.84;;;-2.76;100.00
69528;BME280;57136;51.986;4.468;2022-11-20T04:25:50;101343.88;;;-2.82;100.00
69528;BME280;57136;51.986;4.468;2022-11-20T04:28:16;101349.47;;;-2.74;100.00
69528;BME280;57136;51.986;4.468;2022-11-20T04:30:41;101358.25;;;-2.57;100.00
69528;BME280;57136;51.986;4.468;2022-11-20T04:33:07;101361.00;;;-2.67;100.00
69528;BME280;57136;51.986;4.468;2022-11-20T04:35:36;101360.78;;;-2.71;100.00
69528;BME280;57136;51.986;4.468;2022-11-20T04:38:02;101361.38;;;-2.75;100.00
69528;BME280;57136;51.986;4.468;2022-11-20T04:40:27;101358.41;;;-2.81;100.00
69528;BME280;57136;51.986;4.468;2022-11-20T04:42:54;101369.81;;;-2.62;97.49
69528;BME280;57136;51.986;4.468;2022-11-20T04:45:19;101362.28;;;-2.61;97.24
69528;BME280;57136;51.986;4.468;2022-11-20T04:47:44;101361.13;;;-2.52;96.46
69528;BME280;57136;51.986;4.468;2022-11-20T04:50:10;101359.44;;;-2.65;97.81
69528;BME280;57136;51.986;4.468;2022-11-20T04:52:36;101357.03;;;-2.76;99.30
69528;BME280;57136;51.986;4.468;2022-11-20T04:55:02;101348.88;;;-2.83;100.00
69528;BME280;57136;51.986;4.468;2022-11-20T04:57:27;101347.97;;;-2.84;100.00
69528;BME280;57136;51.986;4.468;2022-11-20T04:59:52;101343.56;;;-2.87;100.00
69528;BME280;57136;51.986;4.468;2022-11-20T05:02:18;101349.34;;;-2.89;100.00
69528;BME280;57136;51.986;4.468;2022-11-20T05:04:43;101347.91;;;-2.86;100.00
69528;BME280;57136;51.986;4.468;2022-11-20T05:07:08;101348.97;;;-2.82;98.13
69528;BME280;57136;51.986;4.468;2022-11-20T05:09:35;101355.34;;;-2.75;96.66
69528;BME280;57136;51.986;4.468;2022-11-20T05:12:00;101358.25;;;-2.71;97.02
69528;BME280;57136;51.986;4.468;2022-11-20T05:14:25;101357.13;;;-2.74;97.58
69528;BME280;57136;51.986;4.468;2022-11-20T05:16:51;101366.81;;;-2.82;98.76
69528;BME280;57136;51.986;4.468;2022-11-20T05:19:16;101359.66;;;-2.88;98.68
69528;BME280;57136;51.986;4.468;2022-11-20T05:21:41;101360.44;;;-2.89;100.00
69528;BME280;57136;51.986;4.468;2022-11-20T05:24:07;101352.78;;;-2.89;100.00
69528;BME280;57136;51.986;4.468;2022-11-20T05:26:32;101355.53;;;-2.86;100.00
69528;BME280;57136;51.986;4.468;2022-11-20T05:28:58;101354.28;;;-2.79;100.00
69528;BME280;57136;51.986;4.468;2022-11-20T05:31:24;101356.13;;;-2.76;100.00
69528;BME280;57136;51.986;4.468;2022-11-20T05:33:50;101356.06;;;-2.78;100.00
69528;BME280;57136;51.986;4.468;2022-11-20T05:36:16;101355.28;;;-2.77;100.00
69528;BME280;57136;51.986;4.468;2022-11-20T05:38:42;101352.72;;;-2.77;100.00
69528;BME280;57136;51.986;4.468;2022-11-20T05:41:16;101348.88;;;-2.83;100.00
69528;BME280;57136;51.986;4.468;2022-11-20T05:43:43;101342.88;;;-2.84;100.00
69528;BME280;57136;51.986;4.468;2022-11-20T05:46:12;101332.69;;;-2.84;100.00
69528;BME280;57136;51.986;4.468;2022-11-20T05:48:39;101329.47;;;-2.81;100.00
69528;BME280;57136;51.986;4.468;2022-11-20T05:51:06;101332.31;;;-2.77;100.00
69528;BME280;57136;51.986;4.468;2022-11-20T05:53:33;101334.28;;;-2.73;100.00
69528;BME280;57136;51.986;4.468;2022-11-20T05:56:32;101319.75;;;-2.74;100.00
69528;BME280;57136;51.986;4.468;2022-11-20T05:58:50;101311.63;;;-2.68;100.00
69528;BME280;57136;51.986;4.468;2022-11-20T06:01:25;101307.22;;;-2.71;100.00
69528;BME280;57136;51.986;4.468;2022-11-20T06:03:50;101307.91;;;-2.60;100.00
69528;BME280;57136;51.986;4.468;2022-11-20T06:06:18;101301.44;;;-2.54;100.00
69528;BME280;57136;51.986;4.468;2022-11-20T06:08:44;101299.47;;;-2.59;100.00
69528;BME280;57136;51.986;4.468;2022-11-20T06:11:11;101301.94;;;-2.47;100.00
69528;BME280;57136;51.986;4.468;2022-11-20T06:13:37;101299.78;;;-2.41;100.00
69528;BME280;57136;51.986;4.468;2022-11-20T06:16:03;101297.44;;;-2.37;100.00
69528;BME280;57136;51.986;4.468;2022-11-20T06:18:29;101287.09;;;-2.39;100.00
69528;BME280;57136;51.986;4.468;2022-11-20T06:21:10;101287.91;;;-2.40;100.00
69528;BME280;57136;51.986;4.468;2022-11-20T06:23:36;101289.78;;;-2.37;100.00
69528;BME280;57136;51.986;4.468;2022-11-20T06:26:04;101284.75;;;-2.36;100.00
69528;BME280;57136;51.986;4.468;2022-11-20T06:28:29;101289.88;;;-2.36;100.00
69528;BME280;57136;51.986;4.468;2022-11-20T06:30:55;101285.47;;;-2.38;100.00
69528;BME280;57136;51.986;4.468;2022-11-20T06:33:20;101281.13;;;-2.26;100.00
69528;BME280;57136;51.986;4.468;2022-11-20T06:35:45;101287.78;;;-2.28;100.00
69528;BME280;57136;51.986;4.468;2022-11-20T06:38:11;101287.50;;;-2.19;100.00
69528;BME280;57136;51.986;4.468;2022-11-20T06:40:39;101289.66;;;-2.12;100.00
69528;BME280;57136;51.986;4.468;2022-11-20T06:43:05;101294.16;;;-2.08;100.00
69528;BME280;57136;51.986;4.468;2022-11-20T06:45:31;101284.94;;;-2.06;100.00
69528;BME280;57136;51.986;4.468;2022-11-20T06:47:57;101288.75;;;-1.99;100.00
69528;BME280;57136;51.986;4.468;2022-11-20T06:50:23;101278.53;;;-1.99;100.00
69528;BME280;57136;51.986;4.468;2022-11-20T06:52:48;101292.28;;;-1.97;100.00
69528;BME280;57136;51.986;4.468;2022-11-20T06:55:13;101281.53;;;-1.78;100.00
69528;BME280;57136;51.986;4.468;2022-11-20T06:57:39;101277.00;;;-1.69;100.00
69528;BME280;57136;51.986;4.468;2022-11-20T07:00:05;101284.34;;;-1.60;100.00
69528;BME280;57136;51.986;4.468;2022-11-20T07:02:30;101274.25;;;-1.43;100.00
69528;BME280;57136;51.986;4.468;2022-11-20T07:04:55;101276.03;;;-1.42;100.00
69528;BME280;57136;51.986;4.468;2022-11-20T07:07:21;101282.50;;;-1.34;100.00
69528;BME280;57136;51.986;4.468;2022-11-20T07:09:46;101273.19;;;-1.47;100.00
69528;BME280;57136;51.986;4.468;2022-11-20T07:12:11;101267.78;;;-1.52;100.00
69528;BME280;57136;51.986;4.468;2022-11-20T07:14:37;101272.69;;;-1.41;100.00
69528;BME280;57136;51.986;4.468;2022-11-20T07:17:02;101283.03;;;-1.10;100.00
69528;BME280;57136;51.986;4.468;2022-11-20T07:19:27;101279.94;;;-1.34;100.00
69528;BME280;57136;51.986;4.468;2022-11-20T07:21:53;101290.00;;;-1.51;100.00
69528;BME280;57136;51.986;4.468;2022-11-20T07:24:19;101280.22;;;-1.58;100.00
69528;BME280;57136;51.986;4.468;2022-11-20T07:26:46;101275.78;;;-1.60;100.00
69528;BME280;57136;51.986;4.468;2022-11-20T07:29:13;101272.44;;;-1.59;100.00
69528;BME280;57136;51.986;4.468;2022-11-20T07:31:38;101281.25;;;-1.41;100.00
69528;BME280;57136;51.986;4.468;2022-11-20T07:34:04;101274.38;;;-1.42;100.00
69528;BME280;57136;51.986;4.468;2022-11-20T07:36:29;101279.03;;;-1.34;100.00
69528;BME280;57136;51.986;4.468;2022-11-20T07:38:54;101282.75;;;-1.29;100.00
69528;BME280;57136;51.986;4.468;2022-11-20T07:41:20;101281.28;;;-1.26;100.00
69528;BME280;57136;51.986;4.468;2022-11-20T07:43:45;101284.56;;;-1.13;100.00
69528;BME280;57136;51.986;4.468;2022-11-20T07:46:11;101286.84;;;-1.18;100.00
69528;BME280;57136;51.986;4.468;2022-11-20T07:48:36;101281.00;;;-1.15;100.00
69528;BME280;57136;51.986;4.468;2022-11-20T07:51:01;101286.06;;;-1.02;100.00
69528;BME280;57136;51.986;4.468;2022-11-20T07:53:27;101287.50;;;-0.92;100.00
69528;BME280;57136;51.986;4.468;2022-11-20T07:55:52;101285.63;;;-0.80;100.00
69528;BME280;57136;51.986;4.468;2022-11-20T07:58:19;101281.16;;;-0.84;100.00
69528;BME280;57136;51.986;4.468;2022-11-20T08:00:45;101268.44;;;-0.82;100.00
69528;BME280;57136;51.986;4.468;2022-11-20T08:03:10;101270.19;;;-0.81;100.00
69528;BME280;57136;51.986;4.468;2022-11-20T08:05:36;101267.91;;;-0.77;100.00
69528;BME280;57136;51.986;4.468;2022-11-20T08:08:02;101273.38;;;-0.55;100.00
69528;BME280;57136;51.986;4.468;2022-11-20T08:10:28;101272.03;;;-0.49;100.00
69528;BME280;57136;51.986;4.468;2022-11-20T08:12:53;101259.41;;;-0.46;100.00
69528;BME280;57136;51.986;4.468;2022-11-20T08:15:39;101255.59;;;-0.37;100.00
69528;BME280;57136;51.986;4.468;2022-11-20T08:18:06;101253.38;;;-0.31;100.00
69528;BME280;57136;51.986;4.468;2022-11-20T08:20:33;101258.09;;;-0.07;100.00
69528;BME280;57136;51.986;4.468;2022-11-20T08:23:00;101252.91;;;0.08;100.00
69528;BME280;57136;51.986;4.468;2022-11-20T08:25:31;101256.13;;;0.20;100.00
69528;BME280;57136;51.986;4.468;2022-11-20T08:28:01;101259.69;;;0.07;100.00
69528;BME280;57136;51.986;4.468;2022-11-20T08:30:28;101255.13;;;0.02;100.00
69528;BME280;57136;51.986;4.468;2022-11-20T08:32:54;101254.50;;;0.06;100.00
69528;BME280;57136;51.986;4.468;2022-11-20T08:35:21;101249.78;;;0.30;100.00
69528;BME280;57136;51.986;4.468;2022-11-20T08:37:47;101256.38;;;0.25;100.00
69528;BME280;57136;51.986;4.468;2022-11-20T08:40:13;101257.47;;;0.30;100.00
69528;BME280;57136;51.986;4.468;2022-11-20T08:42:51;101248.34;;;0.35;100.00
69528;BME280;57136;51.986;4.468;2022-11-20T08:45:17;101255.16;;;0.51;100.00
69528;BME280;57136;51.986;4.468;2022-11-20T08:47:44;101252.69;;;0.53;100.00
69528;BME280;57136;51.986;4.468;2022-11-20T08:50:11;101252.03;;;0.57;100.00
69528;BME280;57136;51.986;4.468;2022-11-20T08:52:37;101255.97;;;0.67;100.00
69528;BME280;57136;51.986;4.468;2022-11-20T08:55:03;101251.84;;;0.87;100.00
69528;BME280;57136;51.986;4.468;2022-11-20T08:57:33;101246.81;;;0.88;100.00
69528;BME280;57136;51.986;4.468;2022-11-20T08:59:59;101245.38;;;0.77;100.00
69528;BME280;57136;51.986;4.468;2022-11-20T09:02:25;101242.00;;;0.95;100.00
69528;BME280;57136;51.986;4.468;2022-11-20T09:04:51;101235.09;;;0.94;100.00
69528;BME280;57136;51.986;4.468;2022-11-20T09:07:16;101231.50;;;1.08;100.00
69528;BME280;57136;51.986;4.468;2022-11-20T09:09:41;101240.09;;;1.27;100.00
69528;BME280;57136;51.986;4.468;2022-11-20T09:12:07;101233.38;;;1.29;100.00
69528;BME280;57136;51.986;4.468;2022-11-20T09:14:32;101234.31;;;1.31;100.00
69528;BME280;57136;51.986;4.468;2022-11-20T09:16:58;101235.59;;;1.57;100.00
69528;BME280;57136;51.986;4.468;2022-11-20T09:19:24;101230.28;;;1.54;100.00
69528;BME280;57136;51.986;4.468;2022-11-20T09:21:50;101216.56;;;1.54;100.00
69528;BME280;57136;51.986;4.468;2022-11-20T09:24:16;101212.16;;;1.51;100.00
69528;BME280;57136;51.986;4.468;2022-11-20T09:26:41;101209.09;;;1.58;100.00
69528;BME280;57136;51.986;4.468;2022-11-20T09:29:07;101204.75;;;1.57;100.00
69528;BME280;57136;51.986;4.468;2022-11-20T09:31:32;101198.72;;;1.75;100.00
69528;BME280;57136;51.986;4.468;2022-11-20T09:33:58;101201.69;;;1.64;100.00
69528;BME280;57136;51.986;4.468;2022-11-20T09:36:23;101190.59;;;1.66;100.00
69528;BME280;57136;51.986;4.468;2022-11-20T09:38:49;101192.22;;;1.63;100.00
69528;BME280;57136;51.986;4.468;2022-11-20T09:46:32;101164.44;;;1.74;100.00
69528;BME280;57136;51.986;4.468;2022-11-20T09:54:20;101160.41;;;1.99;100.00
69528;BME280;57136;51.986;4.468;2022-11-20T09:56:58;101135.78;;;2.04;100.00
69528;BME280;57136;51.986;4.468;2022-11-20T09:59:43;101141.66;;;2.02;100.00
69528;BME280;57136;51.986;4.468;2022-11-20T10:02:37;101132.13;;;1.99;100.00
69528;BME280;57136;51.986;4.468;2022-11-20T10:08:24;101121.78;;;2.17;100.00
69528;BME280;57136;51.986;4.468;2022-11-20T10:11:14;101116.13;;;2.26;100.00
69528;BME280;57136;51.986;4.468;2022-11-20T10:13:57;101107.28;;;2.00;100.00
69528;BME280;57136;51.986;4.468;2022-11-20T10:16:48;101106.41;;;1.99;100.00
69528;BME280;57136;51.986;4.468;2022-11-20T10:30:09;101079.75;;;2.17;100.00
69528;BME280;57136;51.986;4.468;2022-11-20T10:32:39;101072.56;;;2.29;100.00
69528;BME280;57136;51.986;4.468;2022-11-20T10:35:27;101071.16;;;2.37;100.00
69528;BME280;57136;51.986;4.468;2022-11-20T10:37:59;101062.63;;;2.38;100.00
69528;BME280;57136;51.986;4.468;2022-11-20T10:40:37;101075.03;;;2.47;100.00
69528;BME280;57136;51.986;4.468;2022-11-20T10:48:22;101059.16;;;2.80;100.00
69528;BME280;57136;51.986;4.468;2022-11-20T10:51:04;101056.28;;;2.73;100.00
69528;BME280;57136;51.986;4.468;2022-11-20T10:53:58;101045.84;;;2.91;100.00
69528;BME280;57136;51.986;4.468;2022-11-20T10:59:12;101024.72;;;2.99;100.00
69528;BME280;57136;51.986;4.468;2022-11-20T11:01:45;101026.38;;;2.97;100.00
69528;BME280;57136;51.986;4.468;2022-11-20T11:04:39;101004.53;;;2.88;100.00
69528;BME280;57136;51.986;4.468;2022-11-20T11:07:27;101006.25;;;3.10;100.00
69528;BME280;57136;51.986;4.468;2022-11-20T11:09:56;101000.63;;;3.20;100.00
69528;BME280;57136;51.986;4.468;2022-11-20T11:12:24;100995.88;;;3.31;100.00
69528;BME280;57136;51.986;4.468;2022-11-20T11:14:54;100993.56;;;3.39;100.00
69528;BME280;57136;51.986;4.468;2022-11-20T11:17:27;100992.94;;;3.22;100.00
69528;BME280;57136;51.986;4.468;2022-11-20T11:22:53;100976.84;;;3.27;100.00
69528;BME280;57136;51.986;4.468;2022-11-20T11:25:26;100971.63;;;3.26;100.00
69528;BME280;57136;51.986;4.468;2022-11-20T11:27:55;100960.19;;;3.42;100.00
69528;BME280;57136;51.986;4.468;2022-11-20T11:30:22;100939.47;;;3.39;100.00
69528;BME280;57136;51.986;4.468;2022-11-20T11:32:48;100935.97;;;3.37;100.00
69528;BME280;57136;51.986;4.468;2022-11-20T11:35:24;100924.56;;;3.30;100.00
69528;BME280;57136;51.986;4.468;2022-11-20T11:37:51;100924.00;;;3.39;100.00
69528;BME280;57136;51.986;4.468;2022-11-20T11:40:20;100901.66;;;3.38;100.00
69528;BME280;57136;51.986;4.468;2022-11-20T11:42:54;100889.81;;;3.43;100.00
69528;BME280;57136;51.986;4.468;2022-11-20T11:45:22;100886.41;;;3.70;100.00
69528;BME280;57136;51.986;4.468;2022-11-20T11:47:48;100878.69;;;3.97;100.00
69528;BME280;57136;51.986;4.468;2022-11-20T11:50:22;100883.50;;;3.86;100.00
69528;BME280;57136;51.986;4.468;2022-11-20T11:55:30;100880.66;;;4.32;100.00
69528;BME280;57136;51.986;4.468;2022-11-20T11:58:08;100895.25;;;4.60;100.00
69528;BME280;57136;51.986;4.468;2022-11-20T12:00:36;100884.53;;;4.48;100.00
69528;BME280;57136;51.986;4.468;2022-11-20T12:03:19;100891.16;;;4.11;100.00
69528;BME280;57136;51.986;4.468;2022-11-20T12:05:55;100884.28;;;4.11;100.00
69528;BME280;57136;51.986;4.468;2022-11-20T12:16:37;100850.84;;;4.14;100.00
69528;BME280;57136;51.986;4.468;2022-11-20T12:19:09;100856.94;;;4.16;100.00
69528;BME280;57136;51.986;4.468;2022-11-20T12:21:56;100863.84;;;4.17;100.00
69528;BME280;57136;51.986;4.468;2022-11-20T12:24:44;100866.47;;;4.19;100.00
69528;BME280;57136;51.986;4.468;2022-11-20T12:30:11;100850.56;;;4.05;100.00
69528;BME280;57136;51.986;4.468;2022-11-20T12:35:52;100831.84;;;4.11;100.00
69528;BME280;57136;51.986;4.468;2022-11-20T12:47:49;100814.81;;;3.88;100.00
69528;BME280;57136;51.986;4.468;2022-11-20T12:58:36;100782.22;;;3.90;100.00
69528;BME280;57136;51.986;4.468;2022-11-20T13:04:00;100770.34;;;3.96;100.00
69528;BME280;57136;51.986;4.468;2022-11-20T13:06:32;100760.16;;;4.00;100.00
69528;BME280;57136;51.986;4.468;2022-11-20T13:08:58;100755.19;;;4.07;100.00
69528;BME280;57136;51.986;4.468;2022-11-20T13:11:46;100757.69;;;4.03;100.00
69528;BME280;57136;51.986;4.468;2022-11-20T13:14:26;100753.03;;;3.92;100.00
69528;BME280;57136;51.986;4.468;2022-11-20T13:17:00;100754.50;;;3.83;100.00
69528;BME280;57136;51.986;4.468;2022-11-20T13:19:31;100748.75;;;3.92;100.00
69528;BME280;57136;51.986;4.468;2022-11-20T13:21:56;100746.88;;;3.86;100.00
69528;BME280;57136;51.986;4.468;2022-11-20T13:24:25;100740.06;;;3.88;100.00
69528;BME280;57136;51.986;4.468;2022-11-20T13:27:22;100744.47;;;3.93;100.00
69528;BME280;57136;51.986;4.468;2022-11-20T13:30:15;100737.47;;;3.88;100.00
69528;BME280;57136;51.986;4.468;2022-11-20T13:32:56;100732.19;;;3.84;100.00
69528;BME280;57136;51.986;4.468;2022-11-20T13:38:11;100723.22;;;3.71;100.00
69528;BME280;57136;51.986;4.468;2022-11-20T13:40:50;100715.41;;;3.69;100.00
69528;BME280;57136;51.986;4.468;2022-11-20T13:46:03;100706.41;;;3.55;100.00
69528;BME280;57136;51.986;4.468;2022-11-20T13:48:38;100693.03;;;3.39;100.00
69528;BME280;57136;51.986;4.468;2022-11-20T13:54:00;100681.25;;;3.48;100.00
69528;BME280;57136;51.986;4.468;2022-11-20T14:02:09;100655.38;;;3.43;100.00
69528;BME280;57136;51.986;4.468;2022-11-20T14:04:38;100646.81;;;3.44;100.00
69528;BME280;57136;51.986;4.468;2022-11-20T14:07:06;100642.66;;;3.20;100.00
69528;BME280;57136;51.986;4.468;2022-11-20T14:09:33;100625.09;;;3.08;100.00
69528;BME280;57136;51.986;4.468;2022-11-20T14:11:59;100626.63;;;3.29;100.00
69528;BME280;57136;51.986;4.468;2022-11-20T14:14:28;100625.47;;;3.19;100.00
69528;BME280;57136;51.986;4.468;2022-11-20T14:17:15;100615.22;;;3.22;100.00
69528;BME280;57136;51.986;4.468;2022-11-20T14:19:44;100609.44;;;3.29;100.00
69528;BME280;57136;51.986;4.468;2022-11-20T14:24:39;100604.09;;;3.23;100.00
69528;BME280;57136;51.986;4.468;2022-11-20T14:27:09;100613.78;;;3.30;100.00
69528;BME280;57136;51.986;4.468;2022-11-20T14:29:37;100607.16;;;3.39;100.00